aviador You're here:

SARF Decoded Metar

FORMOSA in ARGENTINA
Report Time2017-12-11 05:00:00
UTC Time2017-12-11 05:38:18
Flight Rules vfr VFR
Wind270° at 04 kt
W.Decomp.*RWY 22: 1.9 kt HW 3.5 kt RCW
W.Rank270° ranks 12
Current wind is below 270° avg. (4.9)
Visibility9999 m
Phenomena:N/A
Clouds:N/A
Expected CloudBase > 1,200 ft AGL from Temp-Dew spread
CeilingNone
Temp23°C (ISA +8)
Dew Point20°C (83% RH)
QNH1007 hPa
Density Alt1,683 ft
Elevation197 ft
Report Wrong Elevation
Raw Report
SARF 110500Z 27004KT CAVOK 23/20 Q1007=

Extra information for SARF:More info

Metar Taf Metar & Taf Last 4 Metars F.Rules Stats Wind Profile Meteogram Temp Stats Airport Information Weather charts Add Link Nearby VenuesMetar ALERT Operation Metar Decoded Social comments